sensor_id;sensor_type;location;lat;lon;timestamp;P1;durP1;ratioP1;P2;durP2;ratioP2
60002;SDS011;46322;52.018;8.702;2023-03-15T15:44:10;35.33;;;33.63;;
60002;SDS011;46322;52.018;8.702;2023-03-15T15:49:17;27.25;;;25.95;;
60002;SDS011;46322;52.018;8.702;2023-03-15T15:54:18;25.25;;;24.05;;
60002;SDS011;46322;52.018;8.702;2023-03-15T15:59:23;26.42;;;25.13;;
60002;SDS011;46322;52.018;8.702;2023-03-15T16:04:23;23.75;;;22.58;;
60002;SDS011;46322;52.018;8.702;2023-03-15T16:09:24;27.97;;;26.67;;
60002;SDS011;46322;52.018;8.702;2023-03-15T16:14:27;29.33;;;27.93;;
60002;SDS011;46322;52.018;8.702;2023-03-15T16:19:27;29.55;;;28.15;;
60002;SDS011;46322;52.018;8.702;2023-03-15T16:34:35;59.00;;;54.33;;
60002;SDS011;46322;52.018;8.702;2023-03-15T17:04:37;69.87;;;66.67;;
60002;SDS011;46322;52.018;8.702;2023-03-15T17:09:38;8.87;;;8.27;;
60002;SDS011;46322;52.018;8.702;2023-03-15T18:04:40;32.07;;;17.03;;
60002;SDS011;46322;52.018;8.702;2023-03-15T18:09:41;60.87;;;28.27;;
60002;SDS011;46322;52.018;8.702;2023-03-15T18:14:41;61.33;;;27.33;;
60002;SDS011;46322;52.018;8.702;2023-03-15T18:19:41;68.00;;;30.85;;
60002;SDS011;46322;52.018;8.702;2023-03-15T18:24:41;70.85;;;32.28;;
60002;SDS011;46322;52.018;8.702;2023-03-15T18:29:42;69.53;;;32.50;;
60002;SDS011;46322;52.018;8.702;2023-03-15T18:34:42;67.75;;;30.30;;
60002;SDS011;46322;52.018;8.702;2023-03-15T18:39:42;67.07;;;29.50;;
60002;SDS011;46322;52.018;8.702;2023-03-15T18:44:42;65.25;;;29.05;;
60002;SDS011;46322;52.018;8.702;2023-03-15T18:49:43;65.38;;;29.27;;
60002;SDS011;46322;52.018;8.702;2023-03-15T18:59:43;65.10;;;29.42;;
60002;SDS011;46322;52.018;8.702;2023-03-15T19:04:43;66.18;;;29.33;;
60002;SDS011;46322;52.018;8.702;2023-03-15T19:09:43;65.82;;;29.02;;
60002;SDS011;46322;52.018;8.702;2023-03-15T19:14:44;66.97;;;29.17;;
60002;SDS011;46322;52.018;8.702;2023-03-15T19:19:44;67.85;;;29.17;;
60002;SDS011;46322;52.018;8.702;2023-03-15T19:24:44;67.72;;;28.55;;
60002;SDS011;46322;52.018;8.702;2023-03-15T19:29:44;67.22;;;29.63;;
60002;SDS011;46322;52.018;8.702;2023-03-15T19:34:45;67.00;;;29.63;;
60002;SDS011;46322;52.018;8.702;2023-03-15T19:39:45;69.47;;;29.08;;
60002;SDS011;46322;52.018;8.702;2023-03-15T19:44:46;71.20;;;29.10;;
60002;SDS011;46322;52.018;8.702;2023-03-15T19:49:46;70.93;;;28.43;;
60002;SDS011;46322;52.018;8.702;2023-03-15T19:54:46;71.10;;;29.13;;
60002;SDS011;46322;52.018;8.702;2023-03-15T19:59:47;77.70;;;30.10;;
60002;SDS011;46322;52.018;8.702;2023-03-15T20:04:47;75.22;;;30.60;;
60002;SDS011;46322;52.018;8.702;2023-03-15T20:09:47;80.13;;;31.48;;
60002;SDS011;46322;52.018;8.702;2023-03-15T20:14:47;80.20;;;30.48;;
60002;SDS011;46322;52.018;8.702;2023-03-15T20:19:48;77.78;;;29.23;;
60002;SDS011;46322;52.018;8.702;2023-03-15T20:24:48;77.80;;;29.27;;
60002;SDS011;46322;52.018;8.702;2023-03-15T20:29:48;75.20;;;29.15;;
60002;SDS011;46322;52.018;8.702;2023-03-15T20:34:48;73.10;;;29.50;;
60002;SDS011;46322;52.018;8.702;2023-03-15T20:39:49;68.90;;;28.90;;
60002;SDS011;46322;52.018;8.702;2023-03-15T20:44:49;67.63;;;29.37;;
60002;SDS011;46322;52.018;8.702;2023-03-15T20:49:49;66.73;;;28.87;;
60002;SDS011;46322;52.018;8.702;2023-03-15T20:54:49;67.82;;;28.58;;
60002;SDS011;46322;52.018;8.702;2023-03-15T20:59:50;70.13;;;29.30;;
60002;SDS011;46322;52.018;8.702;2023-03-15T21:04:50;68.97;;;28.83;;
60002;SDS011;46322;52.018;8.702;2023-03-15T21:09:50;68.18;;;29.70;;
60002;SDS011;46322;52.018;8.702;2023-03-15T21:14:51;67.82;;;29.42;;
60002;SDS011;46322;52.018;8.702;2023-03-15T21:19:51;66.15;;;28.65;;
60002;SDS011;46322;52.018;8.702;2023-03-15T21:24:52;67.13;;;28.00;;
60002;SDS011;46322;52.018;8.702;2023-03-15T21:29:52;67.18;;;28.65;;
60002;SDS011;46322;52.018;8.702;2023-03-15T21:34:53;64.87;;;27.90;;
60002;SDS011;46322;52.018;8.702;2023-03-15T21:39:53;64.40;;;28.45;;
60002;SDS011;46322;52.018;8.702;2023-03-15T21:44:53;64.60;;;27.98;;
60002;SDS011;46322;52.018;8.702;2023-03-15T21:59:54;63.55;;;27.48;;
60002;SDS011;46322;52.018;8.702;2023-03-15T22:04:54;64.23;;;27.57;;
60002;SDS011;46322;52.018;8.702;2023-03-15T22:09:54;63.03;;;27.10;;
60002;SDS011;46322;52.018;8.702;2023-03-15T22:14:55;67.67;;;29.00;;
60002;SDS011;46322;52.018;8.702;2023-03-15T22:19:55;66.57;;;28.40;;
60002;SDS011;46322;52.018;8.702;2023-03-15T22:24:55;67.03;;;28.48;;
60002;SDS011;46322;52.018;8.702;2023-03-15T22:29:55;67.13;;;28.92;;
60002;SDS011;46322;52.018;8.702;2023-03-15T22:34:56;67.07;;;28.85;;
60002;SDS011;46322;52.018;8.702;2023-03-15T22:39:56;67.20;;;28.63;;
60002;SDS011;46322;52.018;8.702;2023-03-15T22:44:56;67.82;;;27.48;;
60002;SDS011;46322;52.018;8.702;2023-03-15T22:49:57;72.40;;;29.38;;
60002;SDS011;46322;52.018;8.702;2023-03-15T22:54:57;72.25;;;29.30;;
60002;SDS011;46322;52.018;8.702;2023-03-15T22:59:57;75.43;;;28.80;;
60002;SDS011;46322;52.018;8.702;2023-03-15T23:04:57;74.25;;;28.63;;
60002;SDS011;46322;52.018;8.702;2023-03-15T23:09:58;77.57;;;28.93;;
60002;SDS011;46322;52.018;8.702;2023-03-15T23:14:58;82.22;;;29.40;;
60002;SDS011;46322;52.018;8.702;2023-03-15T23:19:58;78.13;;;30.08;;
60002;SDS011;46322;52.018;8.702;2023-03-15T23:24:58;65.93;;;28.00;;
60002;SDS011;46322;52.018;8.702;2023-03-15T23:29:59;66.20;;;28.23;;
60002;SDS011;46322;52.018;8.702;2023-03-15T23:34:59;76.73;;;29.70;;
60002;SDS011;46322;52.018;8.702;2023-03-15T23:40:00;75.30;;;28.67;;
60002;SDS011;46322;52.018;8.702;2023-03-15T23:45:00;74.85;;;29.05;;
60002;SDS011;46322;52.018;8.702;2023-03-15T23:50:00;76.88;;;29.17;;
60002;SDS011;46322;52.018;8.702;2023-03-15T23:55:01;75.10;;;29.23;;
